^^
Saratoga-Weather Station Historical Data
 
Daily Summary for January 23, 2020 Units:  English    Metric   Both
Daily Weekly Monthly Yearly Custom
  Current: High: Low: Average:
Temperature: 55.8 °F 59.7 °F 55.8 °F 58.5 °F
Dew Point: 54.9 °F 58.6 °F 54.7 °F 57.4 °F
Humidity: 97% 97% 95% 96%
Wind Speed: 2mph 8.9mph 0mph 1mph
Wind Gust: 2mph 10mph - -
WindWSW - - South
Pressure: 29.93 in 29.96 in 29.90 in -
Precipitation: 0.01 in      
Historical Graphs
 
 
Tabular Data for January 23, 2020
Time Temperature Dew Point Pressure Wind Wind Speed Wind Gust Humidity Rainfall Rate (Hourly) solar
00:00 58.5 °F 57 °F 29.96 in South 2 mph 2 mph 95% 0.05 in 0.00 W/m2
00:05 58.5 °F 57 °F 29.95 in Calm   1 mph 95% 0.05 in 0.00 W/m2
00:10 58.6 °F 57.2 °F 29.95 in Calm   1 mph 95% 0.05 in 0.00 W/m2
00:15 58.5 °F 57 °F 29.94 in East 0.9 mph 2 mph 95% 0.04 in 0.00 W/m2
00:20 58.5 °F 57 °F 29.94 in East 0.9 mph 2 mph 95% 0.04 in 0.00 W/m2
00:25 58.6 °F 57.2 °F 29.94 in SE 0.9 mph 2 mph 95% 0.04 in 0.00 W/m2
00:30 58.6 °F 57.6 °F 29.93 in SE 4 mph 7 mph 96% 0.03 in 0.00 W/m2
00:35 58.6 °F 57.6 °F 29.93 in Calm   4 mph 96% 0.03 in 0.00 W/m2
00:40 58.6 °F 57.6 °F 29.94 in Calm   3 mph 96% 0.02 in 0.00 W/m2
00:45 58.8 °F 57.4 °F 29.94 in SE 0.9 mph 2 mph 95% 0.02 in 0.00 W/m2
00:50 58.8 °F 57.4 °F 29.93 in SE 0.9 mph 1 mph 95% 0.01 in 0.00 W/m2
00:55 58.8 °F 57.4 °F 29.93 in SE 0.9 mph 1 mph 95% 0.01 in 0.00 W/m2
01:00 58.8 °F 57.4 °F 29.93 in SE 0.9 mph 2 mph 95% 0.01 in 0.00 W/m2
01:05 58.6 °F 57.6 °F 29.92 in ESE 0.9 mph 3 mph 96% 0.01 in 0.00 W/m2
01:10 58.6 °F 57.6 °F 29.92 in ESE 0.9 mph 3 mph 96% 0.01 in 0.00 W/m2
01:15 58.6 °F 57.6 °F 29.91 in East 2 mph 2 mph 96% 0.01 in 0.00 W/m2
01:20 58.6 °F 57.6 °F 29.91 in SSE 0.9 mph 4 mph 96% 0.01 in 0.00 W/m2
01:25 58.8 °F 57.7 °F 29.91 in SE 0.9 mph 2 mph 96% 0.01 in 0.00 W/m2
01:30 58.8 °F 57.7 °F 29.91 in SE 2 mph 2 mph 96% 0.01 in 0.00 W/m2
01:35 58.8 °F 57.7 °F 29.91 in SE 0.9 mph 2 mph 96% 0.01 in 0.00 W/m2
01:40 58.8 °F 57.7 °F 29.91 in SE 0.9 mph 4 mph 96% 0.01 in 0.00 W/m2
01:45 58.8 °F 57.7 °F 29.90 in SE 2 mph 4 mph 96% 0 in 0.00 W/m2
01:50 59 °F 57.9 °F 29.90 in Calm   1 mph 96% 0 in 0.00 W/m2
01:55 59.2 °F 58.1 °F 29.90 in SSE 2 mph 3 mph 96% 0 in 0.00 W/m2
02:00 59.2 °F 58.1 °F 29.90 in Calm   1 mph 96% 0 in 0.00 W/m2
02:05 59.2 °F 58.1 °F 29.90 in Calm     96% 0 in 0.00 W/m2
02:10 59.2 °F 58.1 °F 29.90 in SSE 0.9 mph 2 mph 96% 0 in 0.00 W/m2
02:15 59.4 °F 58.3 °F 29.90 in Calm   1 mph 96% 0 in 0.00 W/m2
02:20 59.4 °F 58.3 °F 29.91 in SSE 0.9 mph 2 mph 96% 0 in 0.00 W/m2
02:25 59.4 °F 58.3 °F 29.90 in SSE 2 mph 2 mph 96% 0 in 0.00 W/m2
02:30 59.2 °F 58.1 °F 29.90 in Calm   2 mph 96% 0 in 0.00 W/m2
02:35 59.2 °F 58.1 °F 29.90 in SE 0.9 mph 1 mph 96% 0 in 0.00 W/m2
02:40 59.4 °F 58.3 °F 29.91 in Calm   2 mph 96% 0 in 0.00 W/m2
02:45 59.2 °F 58.1 °F 29.90 in SE 0.9 mph 2 mph 96% 0 in 0.00 W/m2
02:50 59.2 °F 58.1 °F 29.91 in WNW 4.9 mph 8 mph 96% 0 in 0.00 W/m2
02:55 59.2 °F 58.1 °F 29.90 in SE 8.9 mph 10 mph 96% 0 in 0.00 W/m2
03:00 59.5 °F 58.5 °F 29.91 in SW 2.9 mph 4 mph 96% 0 in 0.00 W/m2
03:05 59.7 °F 58.6 °F 29.91 in SSE 2.9 mph 6 mph 96% 0 in 0.00 W/m2
03:10 59.7 °F 58.6 °F 29.91 in WSW 2 mph 3 mph 96% 0 in 0.00 W/m2
03:15 59.7 °F 58.6 °F 29.91 in Calm   2 mph 96% 0 in 0.00 W/m2
03:20 59.7 °F 58.6 °F 29.91 in SSW 0.9 mph 2 mph 96% 0 in 0.00 W/m2
03:25 59.5 °F 58.5 °F 29.91 in SSW 2 mph 2 mph 96% 0 in 0.00 W/m2
03:30 59.5 °F 58.5 °F 29.91 in Calm   1 mph 96% 0 in 0.00 W/m2
03:35 59.5 °F 58.5 °F 29.91 in Calm   1 mph 96% 0 in 0.00 W/m2
03:40 59.5 °F 58.5 °F 29.91 in West 0.9 mph 2 mph 96% 0 in 0.00 W/m2
03:45 59.5 °F 58.5 °F 29.92 in West 0.9 mph 1 mph 96% 0 in 0.00 W/m2
03:50 59.4 °F 58.3 °F 29.92 in Calm   1 mph 96% 0 in 0.00 W/m2
03:55 59.4 °F 58.3 °F 29.91 in Calm   2 mph 96% 0 in 0.00 W/m2
04:00 59.4 °F 58.3 °F 29.91 in Calm   1 mph 96% 0 in 0.00 W/m2
04:05 59.4 °F 58.3 °F 29.91 in West 0.9 mph 2 mph 96% 0 in 0.00 W/m2
04:10 59.4 °F 58.3 °F 29.91 in Calm   1 mph 96% 0 in 0.00 W/m2
04:15 59.2 °F 58.1 °F 29.91 in Calm   1 mph 96% 0 in 0.00 W/m2
04:20 59.2 °F 58.1 °F 29.91 in Calm   1 mph 96% 0 in 0.00 W/m2
04:25 58.8 °F 57.7 °F 29.91 in West 0.9 mph 1 mph 96% 0 in 0.00 W/m2
04:30 58.6 °F 57.6 °F 29.91 in Calm     96% 0 in 0.00 W/m2
04:35 58.3 °F 57.2 °F 29.91 in Calm     96% 0 in 0.00 W/m2
04:40 58.1 °F 57 °F 29.91 in West 0.9 mph 1 mph 96% 0 in 0.00 W/m2
04:45 57.9 °F 56.8 °F 29.91 in Calm   1 mph 96% 0 in 0.00 W/m2
04:50 57.7 °F 56.7 °F 29.91 in Calm   1 mph 96% 0 in 0.00 W/m2
04:55 57.7 °F 56.7 °F 29.91 in Calm   1 mph 96% 0 in 0.00 W/m2
05:00 57.7 °F 56.7 °F 29.91 in Calm   1 mph 96% 0 in 0.00 W/m2
05:05 57.7 °F 56.7 °F 29.91 in West 0.9 mph 2 mph 96% 0 in 0.00 W/m2
05:10 57.6 °F 56.5 °F 29.91 in WSW 0.9 mph 3 mph 96% 0 in 0.00 W/m2
05:15 57.6 °F 56.5 °F 29.91 in WSW 2 mph 2 mph 96% 0 in 0.00 W/m2
05:20 57.4 °F 56.3 °F 29.91 in West 2 mph 4 mph 96% 0 in 0.00 W/m2
05:25 57.4 °F 56.3 °F 29.91 in WSW 0.9 mph 2 mph 96% 0 in 0.00 W/m2
05:30 57 °F 55.9 °F 29.91 in WSW 0.9 mph 1 mph 96% 0 in 0.00 W/m2
05:35 57 °F 55.9 °F 29.91 in WSW 2 mph 3 mph 96% 0 in 0.00 W/m2
05:40 57 °F 55.9 °F 29.91 in WSW 0.9 mph 2 mph 96% 0 in 0.00 W/m2
05:45 56.8 °F 55.8 °F 29.92 in Calm   1 mph 96% 0 in 0.00 W/m2
05:50 56.7 °F 55.6 °F 29.92 in WSW 0.9 mph 2 mph 96% 0 in 0.00 W/m2
05:55 56.5 °F 55.4 °F 29.92 in Calm   3 mph 96% 0 in 0.00 W/m2
06:00 56.5 °F 55.4 °F 29.92 in WSW 0.9 mph 3 mph 96% 0 in 0.00 W/m2
06:05 56.5 °F 55.6 °F 29.92 in WSW 0.9 mph 2 mph 97% 0 in 0.00 W/m2
06:10 56.1 °F 55 °F 29.92 in Calm   2 mph 96% 0 in 0.00 W/m2
06:15 55.9 °F 54.9 °F 29.93 in WSW 0.9 mph 2 mph 96% 0 in 0.00 W/m2
06:20 55.8 °F 54.7 °F 29.93 in Calm   2 mph 96% 0 in 0.00 W/m2
06:25 55.8 °F 54.9 °F 29.93 in WSW 2 mph 2 mph 97% 0 in 0.00 W/m2
Villages of Bridgestone, Spring, TX USA
Compliments of Weather Underground - 1.75 mb